createdAt,value
2022-08-19T00:01:30.345Z,5.43
2022-08-19T00:03:59.226Z,5.32
2022-08-19T00:06:27.885Z,5.30
2022-08-19T00:08:56.503Z,5.47
2022-08-19T00:11:28.621Z,4.95
2022-08-19T00:13:57.638Z,5.50
2022-08-19T00:16:26.920Z,4.40
2022-08-19T00:18:56.688Z,4.63
2022-08-19T00:21:25.315Z,4.43
2022-08-19T00:23:53.697Z,4.82
2022-08-19T00:26:22.414Z,4.50
2022-08-19T00:28:52.160Z,4.82
2022-08-19T00:31:20.650Z,4.57
2022-08-19T00:33:51.422Z,4.35
2022-08-19T00:36:20.252Z,4.85
2022-08-19T00:38:48.677Z,4.60
2022-08-19T00:41:18.501Z,4.90
2022-08-19T00:43:58.896Z,4.45
2022-08-19T00:46:28.995Z,4.40
2022-08-19T00:48:58.021Z,4.90
2022-08-19T00:51:38.774Z,5.25
2022-08-19T00:54:07.930Z,5.70
2022-08-19T00:56:36.689Z,5.97
2022-08-19T00:59:09.460Z,5.88
2022-08-19T01:01:39.652Z,5.90
2022-08-19T01:04:08.356Z,6.63
2022-08-19T01:06:38.327Z,7.00
2022-08-19T01:09:07.218Z,7.15
2022-08-19T01:11:37.275Z,6.72
2022-08-19T01:14:06.031Z,7.70
2022-08-19T01:16:35.234Z,8.27
2022-08-19T01:19:05.874Z,9.18
2022-08-19T01:21:35.769Z,9.63
2022-08-19T01:24:05.798Z,10.57
2022-08-19T01:26:34.478Z,10.98
2022-08-19T01:29:05.214Z,10.60
2022-08-19T01:31:33.800Z,11.43
2022-08-19T01:34:02.817Z,11.15
2022-08-19T01:36:32.497Z,11.02
2022-08-19T01:39:01.591Z,11.75
2022-08-19T01:41:31.386Z,11.70
2022-08-19T01:44:13.720Z,11.40
2022-08-19T01:46:48.456Z,11.50
2022-08-19T01:49:17.856Z,10.60
2022-08-19T01:51:46.433Z,11.48
2022-08-19T01:54:23.434Z,11.65
2022-08-19T01:56:58.743Z,11.85
2022-08-19T01:59:27.235Z,11.50
2022-08-19T02:01:56.098Z,11.52
2022-08-19T02:04:26.463Z,11.95
2022-08-19T02:06:54.897Z,12.48
2022-08-19T02:09:23.266Z,12.10
2022-08-19T02:11:51.695Z,12.48
2022-08-19T02:14:21.495Z,13.98
2022-08-19T02:16:49.941Z,13.13
2022-08-19T02:19:18.366Z,12.98
2022-08-19T02:21:46.788Z,12.70
2022-08-19T02:24:15.159Z,13.57
2022-08-19T02:26:43.559Z,14.18
2022-08-19T02:29:11.944Z,13.43
2022-08-19T02:31:41.744Z,13.55
2022-08-19T02:34:10.112Z,14.93
2022-08-19T02:36:42.571Z,12.85
2022-08-19T02:39:10.155Z,12.90
2022-08-19T02:41:38.567Z,14.68
2022-08-19T02:44:28.617Z,14.15
2022-08-19T02:46:57.537Z,14.63
2022-08-19T02:49:25.938Z,14.38
2022-08-19T02:51:55.377Z,15.35
2022-08-19T02:54:23.806Z,16.98
2022-08-19T02:56:52.390Z,15.95
2022-08-19T02:59:22.993Z,16.55
2022-08-19T03:01:51.684Z,17.45
2022-08-19T03:04:21.547Z,16.95
2022-08-19T03:06:50.042Z,17.13
2022-08-19T03:09:19.151Z,16.38
2022-08-19T03:11:48.640Z,17.02
2022-08-19T03:14:19.108Z,17.00
2022-08-19T03:16:48.586Z,17.80
2022-08-19T03:19:18.866Z,18.60
2022-08-19T03:21:48.814Z,18.58
2022-08-19T03:24:18.291Z,19.88
2022-08-19T03:26:48.060Z,19.60
2022-08-19T03:29:25.881Z,19.57
2022-08-19T03:31:59.735Z,19.27
2022-08-19T03:34:32.340Z,19.30
2022-08-19T03:37:05.599Z,17.73
2022-08-19T03:39:34.020Z,19.93
2022-08-19T03:42:31.708Z,18.58
2022-08-19T03:44:52.029Z,18.13
2022-08-19T03:47:20.431Z,19.90
2022-08-19T03:49:48.803Z,18.57
2022-08-19T03:52:18.596Z,18.75
2022-08-19T03:54:47.103Z,19.20
2022-08-19T03:57:15.522Z,18.80
2022-08-19T03:59:44.523Z,19.63
2022-08-19T04:02:14.420Z,18.67
2022-08-19T04:04:45.105Z,18.97
2022-08-19T04:07:17.262Z,19.87
2022-08-19T04:09:47.148Z,19.37
2022-08-19T04:12:15.971Z,19.85
2022-08-19T04:14:44.352Z,17.80
2022-08-19T04:17:14.009Z,18.07
2022-08-19T04:19:43.870Z,18.70
2022-08-19T04:22:13.019Z,18.53
2022-08-19T04:24:41.407Z,20.90
2022-08-19T04:27:11.187Z,20.38
2022-08-19T04:29:40.502Z,20.83
2022-08-19T04:32:09.933Z,21.33
2022-08-19T04:35:01.455Z,21.67
2022-08-19T04:37:34.939Z,20.83
2022-08-19T04:40:22.038Z,21.13
2022-08-19T04:42:52.254Z,21.17
2022-08-19T04:45:23.083Z,20.77
2022-08-19T04:47:58.924Z,21.37
2022-08-19T04:50:43.082Z,20.93
2022-08-19T04:53:11.650Z,21.40
2022-08-19T04:55:43.561Z,20.97
2022-08-19T04:58:13.325Z,20.63
2022-08-19T05:00:42.002Z,20.57
2022-08-19T05:03:11.377Z,20.33
2022-08-19T05:05:45.240Z,20.33
2022-08-19T05:08:15.312Z,20.43
2022-08-19T05:10:44.218Z,19.63
2022-08-19T05:13:14.155Z,20.17
2022-08-19T05:15:42.518Z,21.30
2022-08-19T05:18:28.928Z,21.77
2022-08-19T05:21:15.078Z,20.63
2022-08-19T05:23:43.774Z,19.83
2022-08-19T05:26:12.408Z,21.67
2022-08-19T05:28:42.426Z,21.88
2022-08-19T05:31:11.066Z,21.50
2022-08-19T05:33:40.714Z,21.07
2022-08-19T05:36:09.609Z,23.53
2022-08-19T05:38:38.314Z,21.87
2022-08-19T05:41:09.586Z,21.93
2022-08-19T05:43:38.257Z,21.57
2022-08-19T05:46:08.664Z,22.40
2022-08-19T05:48:37.573Z,20.53
2022-08-19T05:51:07.891Z,21.73
2022-08-19T05:53:36.464Z,20.67
2022-08-19T05:56:06.903Z,20.85
2022-08-19T05:58:35.305Z,21.48
2022-08-19T06:01:06.416Z,22.35
2022-08-19T06:03:37.308Z,22.38
2022-08-19T06:06:06.580Z,19.90
2022-08-19T06:08:36.008Z,20.50
2022-08-19T06:11:25.224Z,20.25
2022-08-19T06:14:00.321Z,19.85
2022-08-19T06:16:29.287Z,20.08
2022-08-19T06:18:59.369Z,20.65
2022-08-19T06:21:29.253Z,20.17
2022-08-19T06:23:58.120Z,19.33
2022-08-19T06:26:27.583Z,20.00
2022-08-19T06:28:56.000Z,19.45
2022-08-19T06:31:25.816Z,19.05
2022-08-19T06:33:55.688Z,18.85
2022-08-19T06:36:28.151Z,17.98
2022-08-19T06:38:58.684Z,18.65
2022-08-19T06:41:27.171Z,16.73
2022-08-19T06:43:56.417Z,17.33
2022-08-19T06:46:25.569Z,17.17
2022-08-19T06:48:55.382Z,18.73
2022-08-19T06:51:25.847Z,20.73
2022-08-19T06:53:59.007Z,21.38
2022-08-19T06:56:32.060Z,20.17
2022-08-19T06:59:01.107Z,21.20
2022-08-19T07:01:30.030Z,20.45
2022-08-19T07:03:58.622Z,20.73
2022-08-19T07:06:44.862Z,19.38
2022-08-19T07:09:18.411Z,19.88
2022-08-19T07:11:47.870Z,18.90
2022-08-19T07:14:19.068Z,19.38
2022-08-19T07:16:48.146Z,18.92
2022-08-19T07:19:19.021Z,18.05
2022-08-19T07:21:49.789Z,17.30
2022-08-19T07:24:19.567Z,18.08
2022-08-19T07:26:51.506Z,16.85
2022-08-19T07:29:20.453Z,16.73
2022-08-19T07:31:52.798Z,16.10
2022-08-19T07:34:22.941Z,15.25
2022-08-19T07:36:53.120Z,16.33
2022-08-19T07:39:22.650Z,14.77
2022-08-19T07:41:51.646Z,15.20
2022-08-19T07:44:21.588Z,14.43
2022-08-19T07:46:53.284Z,14.95
2022-08-19T07:49:23.273Z,14.55
2022-08-19T07:51:54.148Z,15.02
2022-08-19T07:54:24.034Z,14.70
2022-08-19T07:56:53.676Z,14.50
2022-08-19T07:59:22.696Z,13.95
2022-08-19T08:01:51.258Z,13.43
2022-08-19T08:04:37.368Z,15.23
2022-08-19T08:07:25.529Z,14.48
2022-08-19T08:10:02.796Z,13.60
2022-08-19T08:12:35.151Z,13.23
2022-08-19T08:15:08.287Z,13.98
2022-08-19T08:17:49.134Z,13.02
2022-08-19T08:20:18.796Z,12.63
2022-08-19T08:23:06.900Z,12.85
2022-08-19T08:25:36.627Z,11.32
2022-08-19T08:28:05.303Z,13.10
2022-08-19T08:30:36.850Z,11.18
2022-08-19T08:33:05.738Z,9.73
2022-08-19T08:35:34.438Z,10.02
2022-08-19T08:38:05.283Z,9.38
2022-08-19T08:40:41.819Z,10.48
2022-08-19T08:43:12.202Z,10.73
2022-08-19T08:45:44.652Z,10.30
2022-08-19T08:48:23.880Z,9.65
2022-08-19T08:50:53.676Z,9.50
2022-08-19T08:53:29.836Z,10.23
2022-08-19T08:56:02.387Z,9.80
2022-08-19T08:58:33.788Z,8.05
2022-08-19T09:01:02.215Z,7.70
2022-08-19T09:03:31.534Z,6.55
2022-08-19T09:06:03.209Z,5.80
2022-08-19T09:08:39.416Z,4.43
2022-08-19T09:11:09.634Z,4.82
2022-08-19T09:13:44.712Z,4.55
2022-08-19T09:16:15.065Z,4.68
2022-08-19T09:18:44.375Z,4.35
2022-08-19T09:21:12.928Z,4.97
2022-08-19T09:23:44.590Z,4.30
2022-08-19T09:26:16.542Z,4.85
2022-08-19T09:28:48.862Z,5.00
2022-08-19T09:31:27.305Z,5.20
2022-08-19T09:33:58.078Z,4.80
2022-08-19T09:36:31.255Z,5.22
2022-08-19T09:39:16.177Z,5.60
2022-08-19T09:41:47.262Z,5.40
2022-08-19T09:44:18.218Z,5.32
2022-08-19T09:46:48.410Z,4.60
2022-08-19T09:49:18.329Z,3.88
2022-08-19T09:51:51.174Z,4.43
2022-08-19T09:54:23.632Z,4.50
2022-08-19T09:56:53.585Z,4.88
2022-08-19T09:59:21.989Z,4.28
2022-08-19T10:01:50.453Z,4.40
2022-08-19T10:04:20.472Z,4.07
2022-08-19T10:06:53.778Z,4.25
2022-08-19T10:09:34.102Z,4.65
2022-08-19T10:12:03.164Z,4.03
2022-08-19T10:14:31.986Z,3.50
2022-08-19T10:17:01.389Z,3.40
2022-08-19T10:19:55.086Z,3.20
2022-08-19T10:22:26.402Z,3.10
2022-08-19T10:24:57.477Z,3.85
2022-08-19T10:27:26.314Z,3.13
2022-08-19T10:29:54.974Z,3.03
2022-08-19T10:32:34.281Z,3.00
2022-08-19T10:35:02.907Z,2.00
2022-08-19T10:37:34.635Z,2.58
2022-08-19T10:40:05.456Z,2.67
2022-08-19T10:42:34.138Z,3.05
2022-08-19T10:45:02.626Z,2.63
2022-08-19T10:47:33.428Z,2.67
2022-08-19T10:50:19.251Z,2.50
2022-08-19T10:52:50.615Z,2.20
2022-08-19T10:55:39.570Z,1.90
2022-08-19T10:58:13.338Z,2.20
2022-08-19T11:00:42.802Z,1.60
2022-08-19T11:03:11.226Z,1.80
2022-08-19T11:05:40.536Z,1.35
2022-08-19T11:08:22.762Z,1.30
2022-08-19T11:10:54.673Z,1.17
2022-08-19T11:13:24.296Z,1.23
2022-08-19T11:16:00.154Z,1.20
2022-08-19T11:18:31.210Z,1.20
2022-08-19T11:21:08.117Z,1.10
2022-08-19T11:23:36.579Z,1.20
2022-08-19T11:26:06.543Z,1.20
2022-08-19T11:28:34.960Z,1.33
2022-08-19T11:31:04.385Z,1.10
2022-08-19T11:33:33.798Z,1.10
2022-08-19T11:36:03.583Z,1.20
2022-08-19T11:38:32.046Z,1.30
2022-08-19T11:41:01.041Z,1.30
2022-08-19T11:43:35.493Z,1.15
2022-08-19T11:46:07.851Z,1.13
2022-08-19T11:48:36.534Z,1.10
2022-08-19T11:51:07.537Z,1.00
2022-08-19T11:53:39.781Z,1.27
2022-08-19T11:56:09.603Z,1.40
2022-08-19T11:58:39.540Z,1.40
2022-08-19T12:01:09.122Z,1.25
2022-08-19T12:03:37.694Z,1.42
2022-08-19T12:06:07.075Z,1.20
2022-08-19T12:08:35.503Z,1.55
2022-08-19T12:11:04.133Z,1.23
2022-08-19T12:13:33.183Z,1.30
2022-08-19T12:16:04.238Z,1.30
2022-08-19T12:18:33.094Z,1.40
2022-08-19T12:21:02.498Z,1.38
2022-08-19T12:23:30.950Z,1.48
2022-08-19T12:25:59.514Z,1.30
2022-08-19T12:28:28.409Z,1.27
2022-08-19T12:30:58.925Z,1.40
2022-08-19T12:33:29.939Z,1.50
2022-08-19T12:36:03.041Z,1.40
2022-08-19T12:38:31.591Z,1.50
2022-08-19T12:41:00.515Z,1.48
2022-08-19T12:43:31.386Z,1.33
2022-08-19T12:45:59.832Z,1.55
2022-08-19T12:48:33.462Z,1.60
2022-08-19T12:51:03.725Z,1.40
2022-08-19T12:53:32.350Z,1.67
2022-08-19T12:56:03.311Z,1.75
2022-08-19T12:58:36.455Z,1.70
2022-08-19T13:01:09.099Z,1.45
2022-08-19T13:03:40.695Z,1.80
2022-08-19T13:06:19.503Z,1.60
2022-08-19T13:08:48.931Z,1.52
2022-08-19T13:11:18.771Z,1.70
2022-08-19T13:13:48.725Z,1.63
2022-08-19T13:16:17.617Z,1.95
2022-08-19T13:18:48.585Z,1.80
2022-08-19T13:21:18.487Z,1.90
2022-08-19T13:23:49.427Z,1.77
2022-08-19T13:26:18.279Z,1.80
2022-08-19T13:29:05.363Z,1.80
2022-08-19T13:31:52.535Z,1.80
2022-08-19T13:34:28.204Z,1.80
2022-08-19T13:36:59.741Z,1.65
2022-08-19T13:39:28.722Z,1.90
2022-08-19T13:41:57.258Z,1.80
2022-08-19T13:44:25.661Z,1.90
2022-08-19T13:46:55.707Z,2.10
2022-08-19T13:49:25.465Z,1.80
2022-08-19T13:51:53.952Z,1.70
2022-08-19T13:54:22.740Z,2.03
2022-08-19T13:56:51.272Z,1.90
2022-08-19T13:59:20.168Z,1.83
2022-08-19T14:01:48.592Z,1.90
2022-08-19T14:04:17.027Z,1.80
2022-08-19T14:06:46.823Z,1.70
2022-08-19T14:09:15.292Z,1.50
2022-08-19T14:11:43.808Z,1.60
2022-08-19T14:14:16.224Z,1.60
2022-08-19T14:16:45.166Z,1.60
2022-08-19T14:19:13.669Z,1.67
2022-08-19T14:21:42.141Z,1.58
2022-08-19T14:24:12.074Z,1.52
2022-08-19T14:26:40.550Z,1.27
2022-08-19T14:29:09.000Z,1.50
2022-08-19T14:31:38.212Z,1.63
2022-08-19T14:34:06.645Z,1.80
2022-08-19T14:36:39.083Z,1.50
2022-08-19T14:39:08.033Z,1.58
2022-08-19T14:41:38.152Z,1.60
2022-08-19T14:44:06.637Z,1.60
2022-08-19T14:46:35.167Z,1.50
2022-08-19T14:49:09.231Z,1.55
2022-08-19T14:51:38.257Z,1.50
2022-08-19T14:54:06.908Z,1.48
2022-08-19T14:56:36.783Z,1.50
2022-08-19T14:59:07.995Z,1.60
2022-08-19T15:01:36.629Z,1.60
2022-08-19T15:04:05.146Z,1.60
2022-08-19T15:06:33.754Z,1.60
2022-08-19T15:09:04.509Z,1.70
2022-08-19T15:11:33.798Z,1.55
2022-08-19T15:14:02.450Z,1.60
2022-08-19T15:16:32.304Z,1.55
2022-08-19T15:19:01.228Z,1.60
2022-08-19T15:21:30.563Z,1.70
2022-08-19T15:23:59.897Z,1.70
2022-08-19T15:26:29.037Z,1.60
2022-08-19T15:28:57.471Z,1.50
2022-08-19T15:31:28.808Z,1.77
2022-08-19T15:33:59.466Z,1.60
2022-08-19T15:36:28.503Z,1.60
2022-08-19T15:38:57.076Z,1.65
2022-08-19T15:41:26.756Z,1.83
2022-08-19T15:43:56.797Z,1.50
2022-08-19T15:46:26.692Z,1.50
2022-08-19T15:48:57.326Z,1.50
2022-08-19T15:51:31.431Z,1.60
2022-08-19T15:54:01.739Z,1.60
2022-08-19T15:56:57.988Z,1.75
2022-08-19T15:59:46.798Z,1.60
2022-08-19T16:02:33.500Z,1.80
2022-08-19T16:05:20.062Z,1.58
2022-08-19T16:07:51.115Z,1.80
2022-08-19T16:10:26.980Z,1.80
2022-08-19T16:12:56.893Z,1.85
2022-08-19T16:15:25.905Z,1.90
2022-08-19T16:17:56.513Z,1.73
2022-08-19T16:20:27.507Z,1.85
2022-08-19T16:22:58.567Z,1.65
2022-08-19T16:25:28.974Z,1.60
2022-08-19T16:28:07.456Z,1.80
2022-08-19T16:30:37.063Z,1.85
2022-08-19T16:33:05.650Z,1.80
2022-08-19T16:35:34.036Z,1.80
2022-08-19T16:38:04.171Z,1.90
2022-08-19T16:40:32.610Z,1.73
2022-08-19T16:43:01.063Z,2.03
2022-08-19T16:45:29.552Z,2.00
2022-08-19T16:47:58.528Z,2.08
2022-08-19T16:50:46.104Z,2.30
2022-08-19T16:53:17.726Z,2.08
2022-08-19T16:55:51.223Z,1.90
2022-08-19T16:58:20.180Z,1.70
2022-08-19T17:00:49.991Z,1.90
2022-08-19T17:03:19.752Z,1.80
2022-08-19T17:06:04.091Z,1.80
2022-08-19T17:08:34.361Z,1.70
2022-08-19T17:11:17.754Z,2.17
2022-08-19T17:13:47.744Z,2.17
2022-08-19T17:16:17.253Z,2.03
2022-08-19T17:18:45.696Z,2.28
2022-08-19T17:21:14.419Z,2.13
2022-08-19T17:23:44.375Z,2.20
2022-08-19T17:26:13.996Z,2.30
2022-08-19T17:28:47.294Z,2.17
2022-08-19T17:31:15.771Z,2.03
2022-08-19T17:33:48.691Z,2.10
2022-08-19T17:36:17.660Z,2.25
2022-08-19T17:38:47.801Z,2.20
2022-08-19T17:41:16.284Z,2.15
2022-08-19T17:43:45.176Z,2.17
2022-08-19T17:46:17.806Z,2.00
2022-08-19T17:48:51.812Z,1.95
2022-08-19T17:51:22.374Z,2.08
2022-08-19T17:53:53.207Z,2.00
2022-08-19T17:56:22.210Z,2.10
2022-08-19T17:59:00.049Z,2.00
2022-08-19T18:01:41.626Z,1.83
2022-08-19T18:04:18.829Z,2.20
2022-08-19T18:06:53.202Z,2.00
2022-08-19T18:09:24.456Z,1.98
2022-08-19T18:11:54.545Z,2.13
2022-08-19T18:14:32.769Z,2.15
2022-08-19T18:17:02.282Z,2.00
2022-08-19T18:19:40.894Z,1.80
2022-08-19T18:22:11.167Z,1.98
2022-08-19T18:24:41.532Z,1.92
2022-08-19T18:27:10.123Z,2.30
2022-08-19T18:29:40.289Z,2.20
2022-08-19T18:32:13.343Z,2.40
2022-08-19T18:34:42.030Z,2.22
2022-08-19T18:37:10.573Z,1.98
2022-08-19T18:39:56.777Z,2.00
2022-08-19T18:42:44.297Z,2.10
2022-08-19T18:45:30.342Z,2.10
2022-08-19T18:48:27.240Z,2.00
2022-08-19T18:50:57.122Z,2.30
2022-08-19T18:53:25.558Z,2.20
2022-08-19T18:55:55.376Z,2.22
2022-08-19T18:58:26.720Z,2.05
2022-08-19T19:00:57.386Z,2.10
2022-08-19T19:03:26.275Z,2.20
2022-08-19T19:05:54.717Z,2.50
2022-08-19T19:08:26.805Z,2.10
2022-08-19T19:10:55.761Z,2.58
2022-08-19T19:13:26.851Z,2.17
2022-08-19T19:15:55.539Z,2.38
2022-08-19T19:18:25.176Z,2.40
2022-08-19T19:20:53.585Z,2.50
2022-08-19T19:23:22.605Z,2.60
2022-08-19T19:25:54.107Z,2.35
2022-08-19T19:28:25.801Z,2.35
2022-08-19T19:30:57.682Z,2.35
2022-08-19T19:33:26.234Z,2.50
2022-08-19T19:35:54.614Z,2.30
2022-08-19T19:38:23.060Z,2.40
2022-08-19T19:40:51.492Z,2.80
2022-08-19T19:43:19.892Z,2.60
2022-08-19T19:45:49.659Z,2.65
2022-08-19T19:48:19.539Z,2.70
2022-08-19T19:50:53.913Z,2.50
2022-08-19T19:53:24.547Z,2.33
2022-08-19T19:55:58.931Z,2.50
2022-08-19T19:58:28.844Z,2.65
2022-08-19T20:00:57.987Z,2.30
2022-08-19T20:03:28.026Z,2.90
2022-08-19T20:05:59.520Z,3.00
2022-08-19T20:08:45.206Z,2.45
2022-08-19T20:11:17.112Z,2.50
2022-08-19T20:13:45.534Z,2.65
2022-08-19T20:16:13.910Z,2.42
2022-08-19T20:18:45.108Z,2.72
2022-08-19T20:21:13.957Z,2.40
2022-08-19T20:23:42.384Z,2.47
2022-08-19T20:26:15.652Z,2.60
2022-08-19T20:29:11.021Z,2.80
2022-08-19T20:31:57.209Z,2.38
2022-08-19T20:34:27.708Z,2.65
2022-08-19T20:36:56.257Z,2.45
2022-08-19T20:39:24.756Z,2.70
2022-08-19T20:41:53.228Z,2.85
2022-08-19T20:44:21.638Z,3.03
2022-08-19T20:46:55.346Z,3.08
2022-08-19T20:49:26.931Z,2.90
2022-08-19T20:51:57.539Z,2.92
2022-08-19T20:54:26.812Z,3.20
2022-08-19T20:56:55.574Z,2.83
2022-08-19T20:59:24.226Z,3.05
2022-08-19T21:01:53.076Z,2.95
2022-08-19T21:04:21.907Z,3.00
2022-08-19T21:06:50.370Z,3.17
2022-08-19T21:09:20.470Z,2.90
2022-08-19T21:11:49.253Z,2.92
2022-08-19T21:14:17.741Z,2.88
2022-08-19T21:16:46.601Z,3.20
2022-08-19T21:19:15.025Z,2.80
2022-08-19T21:21:43.431Z,3.40
2022-08-19T21:24:12.114Z,3.10
2022-08-19T21:26:42.167Z,3.22
2022-08-19T21:29:10.577Z,3.20
2022-08-19T21:31:38.963Z,3.03
2022-08-19T21:34:07.411Z,2.75
2022-08-19T21:36:35.786Z,3.40
2022-08-19T21:39:04.258Z,3.53
2022-08-19T21:41:32.651Z,3.47
2022-08-19T21:44:02.520Z,3.55
2022-08-19T21:46:32.482Z,3.13
2022-08-19T21:49:00.923Z,3.30
2022-08-19T21:51:29.537Z,3.10
2022-08-19T21:53:57.999Z,3.30
2022-08-19T21:56:26.408Z,3.20
2022-08-19T21:58:56.636Z,3.28
2022-08-19T22:01:26.463Z,3.53
2022-08-19T22:03:54.953Z,3.45
2022-08-19T22:06:26.060Z,3.75
2022-08-19T22:08:55.498Z,3.55
2022-08-19T22:11:23.928Z,3.33
2022-08-19T22:13:53.847Z,3.40
2022-08-19T22:16:22.252Z,3.60
2022-08-19T22:18:52.850Z,3.75
2022-08-19T22:21:24.619Z,3.20
2022-08-19T22:24:08.562Z,3.50
2022-08-19T22:26:36.943Z,3.35
2022-08-19T22:29:05.434Z,3.00
2022-08-19T22:31:33.814Z,3.42
2022-08-19T22:34:03.790Z,3.10
2022-08-19T22:36:32.488Z,3.40
2022-08-19T22:39:00.945Z,3.10
2022-08-19T22:41:29.331Z,3.05
2022-08-19T22:43:58.155Z,3.38
2022-08-19T22:46:26.527Z,3.55
2022-08-19T22:48:56.647Z,3.67
2022-08-19T22:51:48.576Z,3.75
2022-08-19T22:54:17.122Z,3.30
2022-08-19T22:56:45.570Z,3.50
2022-08-19T22:59:14.008Z,3.50
2022-08-19T23:01:42.821Z,3.38
2022-08-19T23:04:11.703Z,3.78
2022-08-19T23:06:42.236Z,4.05
2022-08-19T23:09:16.969Z,4.18
2022-08-19T23:11:45.576Z,3.50
2022-08-19T23:14:14.471Z,3.50
2022-08-19T23:16:42.919Z,3.83
2022-08-19T23:19:11.752Z,3.15
2022-08-19T23:21:41.780Z,3.60
2022-08-19T23:24:10.221Z,3.63
2022-08-19T23:26:38.813Z,3.50
2022-08-19T23:29:25.361Z,4.05
2022-08-19T23:31:53.781Z,3.47
2022-08-19T23:34:22.195Z,3.83
2022-08-19T23:36:51.966Z,3.65
2022-08-19T23:39:20.376Z,4.50
2022-08-19T23:41:48.807Z,4.25
2022-08-19T23:44:17.505Z,4.65
2022-08-19T23:46:55.197Z,5.00
2022-08-19T23:49:25.092Z,4.78
2022-08-19T23:51:55.505Z,4.72
2022-08-19T23:54:27.520Z,5.18
2022-08-19T23:57:13.266Z,4.80
2022-08-19T23:59:45.431Z,4.90
